sensor_id;sensor_type;location;lat;lon;timestamp;temperature;humidity
68051;DHT22;54839;51.364;7.246;2023-04-16T00:00:55;7.30;99.90
68051;DHT22;54839;51.364;7.246;2023-04-16T00:03:21;7.30;99.90
68051;DHT22;54839;51.364;7.246;2023-04-16T00:05:46;7.30;99.90
68051;DHT22;54839;51.364;7.246;2023-04-16T00:08:12;7.30;99.90
68051;DHT22;54839;51.364;7.246;2023-04-16T00:10:38;7.30;99.90
68051;DHT22;54839;51.364;7.246;2023-04-16T00:13:03;7.30;99.90
68051;DHT22;54839;51.364;7.246;2023-04-16T00:15:29;7.20;99.90
68051;DHT22;54839;51.364;7.246;2023-04-16T00:17:54;7.30;99.90
68051;DHT22;54839;51.364;7.246;2023-04-16T00:20:20;7.30;99.90
68051;DHT22;54839;51.364;7.246;2023-04-16T00:22:45;7.30;99.90
68051;DHT22;54839;51.364;7.246;2023-04-16T00:25:12;7.30;99.90
68051;DHT22;54839;51.364;7.246;2023-04-16T00:27:38;7.30;99.90
68051;DHT22;54839;51.364;7.246;2023-04-16T00:30:04;7.30;99.90
68051;DHT22;54839;51.364;7.246;2023-04-16T00:32:30;7.20;99.90
68051;DHT22;54839;51.364;7.246;2023-04-16T00:34:55;7.30;99.90
68051;DHT22;54839;51.364;7.246;2023-04-16T00:37:21;7.30;99.90
68051;DHT22;54839;51.364;7.246;2023-04-16T00:39:46;7.30;99.90
68051;DHT22;54839;51.364;7.246;2023-04-16T00:42:12;7.30;99.90
68051;DHT22;54839;51.364;7.246;2023-04-16T00:44:37;7.40;99.90
68051;DHT22;54839;51.364;7.246;2023-04-16T00:47:03;7.30;99.90
68051;DHT22;54839;51.364;7.246;2023-04-16T00:49:29;7.40;99.90
68051;DHT22;54839;51.364;7.246;2023-04-16T00:51:55;7.30;99.90
68051;DHT22;54839;51.364;7.246;2023-04-16T00:54:21;7.30;99.90
68051;DHT22;54839;51.364;7.246;2023-04-16T00:56:46;7.30;99.90
68051;DHT22;54839;51.364;7.246;2023-04-16T00:59:12;7.30;99.90
68051;DHT22;54839;51.364;7.246;2023-04-16T01:01:38;7.20;99.90
68051;DHT22;54839;51.364;7.246;2023-04-16T01:04:03;7.30;99.90
68051;DHT22;54839;51.364;7.246;2023-04-16T01:06:31;7.20;99.90
68051;DHT22;54839;51.364;7.246;2023-04-16T01:08:56;7.20;99.90
68051;DHT22;54839;51.364;7.246;2023-04-16T01:11:22;7.30;99.90
68051;DHT22;54839;51.364;7.246;2023-04-16T01:13:48;7.20;99.90
68051;DHT22;54839;51.364;7.246;2023-04-16T01:16:13;7.30;99.90
68051;DHT22;54839;51.364;7.246;2023-04-16T01:18:39;7.20;99.90
68051;DHT22;54839;51.364;7.246;2023-04-16T01:21:05;7.30;99.90
68051;DHT22;54839;51.364;7.246;2023-04-16T01:23:31;7.20;99.90
68051;DHT22;54839;51.364;7.246;2023-04-16T01:25:56;7.30;99.90
68051;DHT22;54839;51.364;7.246;2023-04-16T01:28:22;7.30;99.90
68051;DHT22;54839;51.364;7.246;2023-04-16T01:30:47;7.30;99.90
68051;DHT22;54839;51.364;7.246;2023-04-16T01:33:14;7.40;99.90
68051;DHT22;54839;51.364;7.246;2023-04-16T01:35:40;7.40;99.90
68051;DHT22;54839;51.364;7.246;2023-04-16T01:38:07;7.30;99.90
68051;DHT22;54839;51.364;7.246;2023-04-16T01:40:33;7.30;99.90
68051;DHT22;54839;51.364;7.246;2023-04-16T01:42:59;7.30;99.90
68051;DHT22;54839;51.364;7.246;2023-04-16T01:45:25;7.20;99.90
68051;DHT22;54839;51.364;7.246;2023-04-16T01:47:51;7.30;99.90
68051;DHT22;54839;51.364;7.246;2023-04-16T01:50:17;7.30;99.90
68051;DHT22;54839;51.364;7.246;2023-04-16T01:52:43;7.30;99.90
68051;DHT22;54839;51.364;7.246;2023-04-16T01:55:09;7.30;99.90
68051;DHT22;54839;51.364;7.246;2023-04-16T01:57:34;7.30;99.90
68051;DHT22;54839;51.364;7.246;2023-04-16T02:00:00;7.40;99.90
68051;DHT22;54839;51.364;7.246;2023-04-16T02:02:26;7.40;99.90
68051;DHT22;54839;51.364;7.246;2023-04-16T02:04:54;7.40;99.90
68051;DHT22;54839;51.364;7.246;2023-04-16T02:07:20;7.40;99.90
68051;DHT22;54839;51.364;7.246;2023-04-16T02:09:46;7.30;99.90
68051;DHT22;54839;51.364;7.246;2023-04-16T02:12:11;7.30;99.90
68051;DHT22;54839;51.364;7.246;2023-04-16T02:14:37;7.30;99.90
68051;DHT22;54839;51.364;7.246;2023-04-16T02:17:03;7.40;99.90
68051;DHT22;54839;51.364;7.246;2023-04-16T02:19:29;7.30;99.90
68051;DHT22;54839;51.364;7.246;2023-04-16T02:21:55;7.40;99.90
68051;DHT22;54839;51.364;7.246;2023-04-16T02:24:20;7.40;99.90
68051;DHT22;54839;51.364;7.246;2023-04-16T02:26:46;7.40;99.90
68051;DHT22;54839;51.364;7.246;2023-04-16T02:29:12;7.30;99.90
68051;DHT22;54839;51.364;7.246;2023-04-16T02:31:37;7.40;99.90
68051;DHT22;54839;51.364;7.246;2023-04-16T02:34:03;7.30;99.90
68051;DHT22;54839;51.364;7.246;2023-04-16T02:36:29;7.40;99.90
68051;DHT22;54839;51.364;7.246;2023-04-16T02:38:56;7.40;99.90
68051;DHT22;54839;51.364;7.246;2023-04-16T02:41:22;7.40;99.90
68051;DHT22;54839;51.364;7.246;2023-04-16T02:43:47;7.40;99.90
68051;DHT22;54839;51.364;7.246;2023-04-16T02:46:13;7.40;99.90
68051;DHT22;54839;51.364;7.246;2023-04-16T02:48:39;7.50;99.90
68051;DHT22;54839;51.364;7.246;2023-04-16T02:51:04;7.40;99.90
68051;DHT22;54839;51.364;7.246;2023-04-16T02:53:30;7.50;99.90
68051;DHT22;54839;51.364;7.246;2023-04-16T02:55:55;7.50;99.90
68051;DHT22;54839;51.364;7.246;2023-04-16T02:58:22;7.50;99.90
68051;DHT22;54839;51.364;7.246;2023-04-16T03:00:52;7.50;99.90
68051;DHT22;54839;51.364;7.246;2023-04-16T03:03:18;7.50;99.90
68051;DHT22;54839;51.364;7.246;2023-04-16T03:05:44;7.60;99.90
68051;DHT22;54839;51.364;7.246;2023-04-16T03:08:10;7.60;99.90
68051;DHT22;54839;51.364;7.246;2023-04-16T03:10:36;7.60;99.90
68051;DHT22;54839;51.364;7.246;2023-04-16T03:13:02;7.60;99.90
68051;DHT22;54839;51.364;7.246;2023-04-16T03:15:28;7.60;99.90
68051;DHT22;54839;51.364;7.246;2023-04-16T03:17:54;7.50;99.90
68051;DHT22;54839;51.364;7.246;2023-04-16T03:20:19;7.60;99.90
68051;DHT22;54839;51.364;7.246;2023-04-16T03:22:46;7.60;99.90
68051;DHT22;54839;51.364;7.246;2023-04-16T03:25:12;7.60;99.90
68051;DHT22;54839;51.364;7.246;2023-04-16T03:27:37;7.60;99.90
68051;DHT22;54839;51.364;7.246;2023-04-16T03:30:07;7.60;99.90
68051;DHT22;54839;51.364;7.246;2023-04-16T03:32:33;7.60;99.90
68051;DHT22;54839;51.364;7.246;2023-04-16T03:34:58;7.70;99.90
68051;DHT22;54839;51.364;7.246;2023-04-16T03:37:24;7.60;99.90
68051;DHT22;54839;51.364;7.246;2023-04-16T03:39:50;7.60;99.90
68051;DHT22;54839;51.364;7.246;2023-04-16T03:42:16;7.70;99.90
68051;DHT22;54839;51.364;7.246;2023-04-16T03:44:41;7.70;99.90
68051;DHT22;54839;51.364;7.246;2023-04-16T03:47:07;7.70;99.90
68051;DHT22;54839;51.364;7.246;2023-04-16T03:49:32;7.70;99.90
68051;DHT22;54839;51.364;7.246;2023-04-16T03:51:58;7.70;99.90
68051;DHT22;54839;51.364;7.246;2023-04-16T03:54:23;7.70;99.90
68051;DHT22;54839;51.364;7.246;2023-04-16T03:56:49;7.70;99.90
68051;DHT22;54839;51.364;7.246;2023-04-16T03:59:16;7.80;99.90
68051;DHT22;54839;51.364;7.246;2023-04-16T04:01:42;7.70;99.90
68051;DHT22;54839;51.364;7.246;2023-04-16T04:04:07;7.70;99.90
68051;DHT22;54839;51.364;7.246;2023-04-16T04:06:34;7.70;99.90
68051;DHT22;54839;51.364;7.246;2023-04-16T04:08:59;7.90;99.90
68051;DHT22;54839;51.364;7.246;2023-04-16T04:11:25;7.80;99.90
68051;DHT22;54839;51.364;7.246;2023-04-16T04:13:50;7.90;99.90
68051;DHT22;54839;51.364;7.246;2023-04-16T04:16:16;7.90;99.90
68051;DHT22;54839;51.364;7.246;2023-04-16T04:18:41;7.80;99.90
68051;DHT22;54839;51.364;7.246;2023-04-16T04:21:08;7.80;99.90
68051;DHT22;54839;51.364;7.246;2023-04-16T04:23:34;7.90;99.90
68051;DHT22;54839;51.364;7.246;2023-04-16T04:26:00;7.80;99.90
68051;DHT22;54839;51.364;7.246;2023-04-16T04:28:28;7.80;99.90
68051;DHT22;54839;51.364;7.246;2023-04-16T04:30:56;7.80;99.90
68051;DHT22;54839;51.364;7.246;2023-04-16T04:33:22;7.80;99.90
68051;DHT22;54839;51.364;7.246;2023-04-16T04:35:47;7.80;99.90
68051;DHT22;54839;51.364;7.246;2023-04-16T04:38:13;7.80;99.90
68051;DHT22;54839;51.364;7.246;2023-04-16T04:40:38;7.70;99.90
68051;DHT22;54839;51.364;7.246;2023-04-16T04:43:04;7.80;99.90
68051;DHT22;54839;51.364;7.246;2023-04-16T04:45:29;7.80;99.90
68051;DHT22;54839;51.364;7.246;2023-04-16T04:47:55;7.80;99.90
68051;DHT22;54839;51.364;7.246;2023-04-16T04:50:21;7.80;99.90
68051;DHT22;54839;51.364;7.246;2023-04-16T04:52:46;7.70;99.90
68051;DHT22;54839;51.364;7.246;2023-04-16T04:55:12;7.80;99.90
68051;DHT22;54839;51.364;7.246;2023-04-16T04:57:40;7.80;99.90
68051;DHT22;54839;51.364;7.246;2023-04-16T05:00:06;7.80;99.90
68051;DHT22;54839;51.364;7.246;2023-04-16T05:02:32;7.80;99.90
68051;DHT22;54839;51.364;7.246;2023-04-16T05:04:57;7.80;99.90
68051;DHT22;54839;51.364;7.246;2023-04-16T05:07:23;7.90;99.90
68051;DHT22;54839;51.364;7.246;2023-04-16T05:09:49;7.90;99.90
68051;DHT22;54839;51.364;7.246;2023-04-16T05:12:14;7.90;99.90
68051;DHT22;54839;51.364;7.246;2023-04-16T05:14:40;7.90;99.90
68051;DHT22;54839;51.364;7.246;2023-04-16T05:17:06;7.90;99.90
68051;DHT22;54839;51.364;7.246;2023-04-16T05:19:32;7.90;99.90
68051;DHT22;54839;51.364;7.246;2023-04-16T05:21:58;7.90;99.90
68051;DHT22;54839;51.364;7.246;2023-04-16T05:24:23;8.00;99.90
68051;DHT22;54839;51.364;7.246;2023-04-16T05:26:49;8.00;99.90
68051;DHT22;54839;51.364;7.246;2023-04-16T05:29:14;8.00;99.90
68051;DHT22;54839;51.364;7.246;2023-04-16T05:31:40;7.90;99.90
68051;DHT22;54839;51.364;7.246;2023-04-16T05:34:06;8.00;99.90
68051;DHT22;54839;51.364;7.246;2023-04-16T05:36:31;8.00;99.90
68051;DHT22;54839;51.364;7.246;2023-04-16T05:38:57;8.00;99.90
68051;DHT22;54839;51.364;7.246;2023-04-16T05:41:22;8.00;99.90
68051;DHT22;54839;51.364;7.246;2023-04-16T05:43:48;8.00;99.90
68051;DHT22;54839;51.364;7.246;2023-04-16T05:46:13;8.00;99.90
68051;DHT22;54839;51.364;7.246;2023-04-16T05:48:38;8.00;99.90
68051;DHT22;54839;51.364;7.246;2023-04-16T05:51:04;8.10;99.90
68051;DHT22;54839;51.364;7.246;2023-04-16T05:53:30;8.10;99.90
68051;DHT22;54839;51.364;7.246;2023-04-16T05:55:55;8.10;99.90
68051;DHT22;54839;51.364;7.246;2023-04-16T05:58:20;8.00;99.90
68051;DHT22;54839;51.364;7.246;2023-04-16T06:00:46;8.00;99.90
68051;DHT22;54839;51.364;7.246;2023-04-16T06:03:12;8.00;99.90
68051;DHT22;54839;51.364;7.246;2023-04-16T06:05:37;8.10;99.90
68051;DHT22;54839;51.364;7.246;2023-04-16T06:08:03;8.10;99.90
68051;DHT22;54839;51.364;7.246;2023-04-16T06:10:28;8.10;99.90
68051;DHT22;54839;51.364;7.246;2023-04-16T06:12:53;8.20;99.90
68051;DHT22;54839;51.364;7.246;2023-04-16T06:15:19;8.10;99.90
68051;DHT22;54839;51.364;7.246;2023-04-16T06:17:45;8.10;99.90
68051;DHT22;54839;51.364;7.246;2023-04-16T06:20:11;8.20;99.90
68051;DHT22;54839;51.364;7.246;2023-04-16T06:22:37;8.10;99.90
68051;DHT22;54839;51.364;7.246;2023-04-16T06:25:03;8.10;99.90
68051;DHT22;54839;51.364;7.246;2023-04-16T06:27:29;8.10;99.90
68051;DHT22;54839;51.364;7.246;2023-04-16T06:29:56;8.10;99.90
68051;DHT22;54839;51.364;7.246;2023-04-16T06:32:21;8.20;99.90
68051;DHT22;54839;51.364;7.246;2023-04-16T06:34:47;8.20;99.90
68051;DHT22;54839;51.364;7.246;2023-04-16T06:37:12;8.20;99.90
68051;DHT22;54839;51.364;7.246;2023-04-16T06:39:38;8.20;99.90
68051;DHT22;54839;51.364;7.246;2023-04-16T06:42:04;8.30;99.90
68051;DHT22;54839;51.364;7.246;2023-04-16T06:44:29;8.30;99.90
68051;DHT22;54839;51.364;7.246;2023-04-16T06:46:55;8.20;99.90
68051;DHT22;54839;51.364;7.246;2023-04-16T06:49:20;8.30;99.90
68051;DHT22;54839;51.364;7.246;2023-04-16T06:51:46;8.20;99.90
68051;DHT22;54839;51.364;7.246;2023-04-16T06:54:11;8.20;99.90
68051;DHT22;54839;51.364;7.246;2023-04-16T06:56:37;8.30;99.90
68051;DHT22;54839;51.364;7.246;2023-04-16T06:59:03;8.40;99.90
68051;DHT22;54839;51.364;7.246;2023-04-16T07:01:29;8.50;99.90
68051;DHT22;54839;51.364;7.246;2023-04-16T07:03:56;8.50;99.90
68051;DHT22;54839;51.364;7.246;2023-04-16T07:06:21;8.50;99.90
68051;DHT22;54839;51.364;7.246;2023-04-16T07:08:47;8.50;99.90
68051;DHT22;54839;51.364;7.246;2023-04-16T07:11:13;8.60;99.90
68051;DHT22;54839;51.364;7.246;2023-04-16T07:13:38;8.70;99.90
68051;DHT22;54839;51.364;7.246;2023-04-16T07:16:04;8.70;99.90
68051;DHT22;54839;51.364;7.246;2023-04-16T07:18:30;8.60;99.90
68051;DHT22;54839;51.364;7.246;2023-04-16T07:20:56;8.60;99.90
68051;DHT22;54839;51.364;7.246;2023-04-16T07:23:21;8.60;99.90
68051;DHT22;54839;51.364;7.246;2023-04-16T07:25:47;8.70;99.90
68051;DHT22;54839;51.364;7.246;2023-04-16T07:28:13;8.70;99.90
68051;DHT22;54839;51.364;7.246;2023-04-16T07:30:41;8.70;99.90
68051;DHT22;54839;51.364;7.246;2023-04-16T07:33:07;8.80;99.90
68051;DHT22;54839;51.364;7.246;2023-04-16T07:35:32;8.90;99.90
68051;DHT22;54839;51.364;7.246;2023-04-16T07:37:58;8.90;99.90
68051;DHT22;54839;51.364;7.246;2023-04-16T07:40:23;8.90;99.90
68051;DHT22;54839;51.364;7.246;2023-04-16T07:42:49;8.90;99.90
68051;DHT22;54839;51.364;7.246;2023-04-16T07:45:16;9.10;99.90
68051;DHT22;54839;51.364;7.246;2023-04-16T07:47:41;9.10;99.90
68051;DHT22;54839;51.364;7.246;2023-04-16T07:50:07;9.00;99.90
68051;DHT22;54839;51.364;7.246;2023-04-16T07:52:33;9.00;99.90
68051;DHT22;54839;51.364;7.246;2023-04-16T07:54:59;9.00;99.90
68051;DHT22;54839;51.364;7.246;2023-04-16T07:57:24;9.10;99.90
68051;DHT22;54839;51.364;7.246;2023-04-16T07:59:50;8.90;99.90
68051;DHT22;54839;51.364;7.246;2023-04-16T08:02:15;9.00;99.90
68051;DHT22;54839;51.364;7.246;2023-04-16T08:04:42;9.00;99.90
68051;DHT22;54839;51.364;7.246;2023-04-16T08:07:08;9.00;99.90
68051;DHT22;54839;51.364;7.246;2023-04-16T08:09:33;9.00;99.90
68051;DHT22;54839;51.364;7.246;2023-04-16T08:12:01;8.90;99.90
68051;DHT22;54839;51.364;7.246;2023-04-16T08:14:27;9.10;99.90
68051;DHT22;54839;51.364;7.246;2023-04-16T08:16:52;9.20;99.90
68051;DHT22;54839;51.364;7.246;2023-04-16T08:19:18;9.30;99.90
68051;DHT22;54839;51.364;7.246;2023-04-16T08:21:43;9.20;99.90
68051;DHT22;54839;51.364;7.246;2023-04-16T08:24:09;9.20;99.90
68051;DHT22;54839;51.364;7.246;2023-04-16T08:26:35;9.40;99.90
68051;DHT22;54839;51.364;7.246;2023-04-16T08:29:00;9.40;99.90
68051;DHT22;54839;51.364;7.246;2023-04-16T08:31:26;9.60;99.90
68051;DHT22;54839;51.364;7.246;2023-04-16T08:33:51;9.70;99.90
68051;DHT22;54839;51.364;7.246;2023-04-16T08:36:17;9.70;99.90
68051;DHT22;54839;51.364;7.246;2023-04-16T08:38:42;9.80;99.90
68051;DHT22;54839;51.364;7.246;2023-04-16T08:41:11;10.10;99.90
68051;DHT22;54839;51.364;7.246;2023-04-16T08:43:38;10.10;99.90
68051;DHT22;54839;51.364;7.246;2023-04-16T08:46:06;10.10;99.90
68051;DHT22;54839;51.364;7.246;2023-04-16T08:48:33;10.00;99.90
68051;DHT22;54839;51.364;7.246;2023-04-16T08:51:00;10.00;99.90
68051;DHT22;54839;51.364;7.246;2023-04-16T08:56:12;10.10;99.90
68051;DHT22;54839;51.364;7.246;2023-04-16T08:58:39;10.30;99.90
68051;DHT22;54839;51.364;7.246;2023-04-16T09:01:05;10.40;99.90
68051;DHT22;54839;51.364;7.246;2023-04-16T09:03:33;10.60;99.90
68051;DHT22;54839;51.364;7.246;2023-04-16T09:05:59;10.70;99.90
68051;DHT22;54839;51.364;7.246;2023-04-16T09:08:28;10.60;99.90
68051;DHT22;54839;51.364;7.246;2023-04-16T09:10:55;10.70;99.90
68051;DHT22;54839;51.364;7.246;2023-04-16T09:13:20;10.40;99.90
68051;DHT22;54839;51.364;7.246;2023-04-16T09:15:51;10.30;99.90
68051;DHT22;54839;51.364;7.246;2023-04-16T09:18:17;10.40;99.90
68051;DHT22;54839;51.364;7.246;2023-04-16T09:20:44;10.50;99.90
68051;DHT22;54839;51.364;7.246;2023-04-16T09:23:10;10.60;99.90
68051;DHT22;54839;51.364;7.246;2023-04-16T09:25:36;11.00;99.90
68051;DHT22;54839;51.364;7.246;2023-04-16T09:28:03;11.20;99.90
68051;DHT22;54839;51.364;7.246;2023-04-16T09:30:28;11.20;99.90
68051;DHT22;54839;51.364;7.246;2023-04-16T09:33:16;11.10;99.90
68051;DHT22;54839;51.364;7.246;2023-04-16T09:35:47;11.10;99.90
68051;DHT22;54839;51.364;7.246;2023-04-16T09:38:12;11.10;99.90
68051;DHT22;54839;51.364;7.246;2023-04-16T09:40:38;11.10;99.90
68051;DHT22;54839;51.364;7.246;2023-04-16T09:43:14;11.20;99.90
68051;DHT22;54839;51.364;7.246;2023-04-16T09:45:50;11.20;99.90
68051;DHT22;54839;51.364;7.246;2023-04-16T09:50:52;11.40;99.90
68051;DHT22;54839;51.364;7.246;2023-04-16T09:53:25;11.30;99.90
68051;DHT22;54839;51.364;7.246;2023-04-16T09:56:00;11.00;99.90
68051;DHT22;54839;51.364;7.246;2023-04-16T09:58:26;10.80;99.90
68051;DHT22;54839;51.364;7.246;2023-04-16T10:00:59;10.60;99.90
68051;DHT22;54839;51.364;7.246;2023-04-16T10:03:32;10.60;99.90
68051;DHT22;54839;51.364;7.246;2023-04-16T10:06:14;10.80;99.90
68051;DHT22;54839;51.364;7.246;2023-04-16T10:11:09;11.00;99.90
68051;DHT22;54839;51.364;7.246;2023-04-16T10:13:35;11.10;99.90
68051;DHT22;54839;51.364;7.246;2023-04-16T10:16:02;11.20;99.90
68051;DHT22;54839;51.364;7.246;2023-04-16T10:18:28;11.40;99.90
68051;DHT22;54839;51.364;7.246;2023-04-16T10:20:54;11.40;99.90
68051;DHT22;54839;51.364;7.246;2023-04-16T10:23:21;11.50;99.90
68051;DHT22;54839;51.364;7.246;2023-04-16T10:25:49;11.50;99.90
68051;DHT22;54839;51.364;7.246;2023-04-16T10:28:16;11.50;99.90
68051;DHT22;54839;51.364;7.246;2023-04-16T10:30:47;11.70;99.90
68051;DHT22;54839;51.364;7.246;2023-04-16T10:33:26;11.50;99.90
68051;DHT22;54839;51.364;7.246;2023-04-16T10:36:15;11.40;99.90
68051;DHT22;54839;51.364;7.246;2023-04-16T10:38:46;11.60;99.90
68051;DHT22;54839;51.364;7.246;2023-04-16T10:41:11;11.60;99.90
68051;DHT22;54839;51.364;7.246;2023-04-16T10:43:45;12.00;99.90
68051;DHT22;54839;51.364;7.246;2023-04-16T10:48:55;13.00;99.90
68051;DHT22;54839;51.364;7.246;2023-04-16T10:51:28;13.10;99.90
68051;DHT22;54839;51.364;7.246;2023-04-16T10:56:31;13.40;99.90
68051;DHT22;54839;51.364;7.246;2023-04-16T10:58:57;13.60;99.90
68051;DHT22;54839;51.364;7.246;2023-04-16T11:03:58;13.10;99.90
68051;DHT22;54839;51.364;7.246;2023-04-16T11:06:25;13.00;99.90
68051;DHT22;54839;51.364;7.246;2023-04-16T11:08:52;12.80;99.90
68051;DHT22;54839;51.364;7.246;2023-04-16T11:11:19;12.20;99.90
68051;DHT22;54839;51.364;7.246;2023-04-16T11:13:45;12.00;99.90
68051;DHT22;54839;51.364;7.246;2023-04-16T11:16:14;12.30;99.90
68051;DHT22;54839;51.364;7.246;2023-04-16T11:18:40;12.60;99.90
68051;DHT22;54839;51.364;7.246;2023-04-16T11:21:10;13.00;99.90
68051;DHT22;54839;51.364;7.246;2023-04-16T11:23:47;13.40;99.90
68051;DHT22;54839;51.364;7.246;2023-04-16T11:26:26;13.80;99.90
68051;DHT22;54839;51.364;7.246;2023-04-16T11:28:53;13.70;99.90
68051;DHT22;54839;51.364;7.246;2023-04-16T11:31:20;13.40;99.90
68051;DHT22;54839;51.364;7.246;2023-04-16T11:33:45;13.20;99.90
68051;DHT22;54839;51.364;7.246;2023-04-16T11:36:11;13.30;99.90
68051;DHT22;54839;51.364;7.246;2023-04-16T11:38:37;13.70;99.90
68051;DHT22;54839;51.364;7.246;2023-04-16T11:41:05;14.00;99.90
68051;DHT22;54839;51.364;7.246;2023-04-16T11:43:31;14.20;99.90
68051;DHT22;54839;51.364;7.246;2023-04-16T11:46:01;14.20;99.90
68051;DHT22;54839;51.364;7.246;2023-04-16T11:49:05;14.70;99.90
68051;DHT22;54839;51.364;7.246;2023-04-16T11:51:30;15.30;99.90
68051;DHT22;54839;51.364;7.246;2023-04-16T11:53:56;15.30;99.90
68051;DHT22;54839;51.364;7.246;2023-04-16T11:56:27;15.30;99.90
68051;DHT22;54839;51.364;7.246;2023-04-16T11:59:13;15.70;99.90
68051;DHT22;54839;51.364;7.246;2023-04-16T12:01:40;16.00;99.90
68051;DHT22;54839;51.364;7.246;2023-04-16T12:04:07;15.60;99.90
68051;DHT22;54839;51.364;7.246;2023-04-16T12:06:32;15.00;99.90
68051;DHT22;54839;51.364;7.246;2023-04-16T12:08:59;14.30;99.90
68051;DHT22;54839;51.364;7.246;2023-04-16T12:11:41;13.90;99.90
68051;DHT22;54839;51.364;7.246;2023-04-16T12:14:10;13.50;99.90
68051;DHT22;54839;51.364;7.246;2023-04-16T12:16:36;13.10;99.90
68051;DHT22;54839;51.364;7.246;2023-04-16T12:19:03;12.60;99.90
68051;DHT22;54839;51.364;7.246;2023-04-16T12:21:46;12.70;99.90
68051;DHT22;54839;51.364;7.246;2023-04-16T12:24:14;12.60;99.90
68051;DHT22;54839;51.364;7.246;2023-04-16T12:26:42;12.60;99.90
68051;DHT22;54839;51.364;7.246;2023-04-16T12:29:25;12.70;99.90
68051;DHT22;54839;51.364;7.246;2023-04-16T12:31:52;12.90;99.90
68051;DHT22;54839;51.364;7.246;2023-04-16T12:34:19;13.10;99.90
68051;DHT22;54839;51.364;7.246;2023-04-16T12:36:46;13.10;99.90
68051;DHT22;54839;51.364;7.246;2023-04-16T12:39:13;13.10;99.90
68051;DHT22;54839;51.364;7.246;2023-04-16T12:41:40;13.30;99.90
68051;DHT22;54839;51.364;7.246;2023-04-16T12:44:07;13.60;99.90
68051;DHT22;54839;51.364;7.246;2023-04-16T12:46:34;13.70;99.90
68051;DHT22;54839;51.364;7.246;2023-04-16T12:49:01;13.90;99.90
68051;DHT22;54839;51.364;7.246;2023-04-16T12:51:26;14.00;99.90
68051;DHT22;54839;51.364;7.246;2023-04-16T12:53:53;14.00;99.90
68051;DHT22;54839;51.364;7.246;2023-04-16T12:56:18;14.00;99.90
68051;DHT22;54839;51.364;7.246;2023-04-16T12:58:44;13.90;99.90
68051;DHT22;54839;51.364;7.246;2023-04-16T13:01:10;14.00;99.90
68051;DHT22;54839;51.364;7.246;2023-04-16T13:03:36;14.10;99.90
68051;DHT22;54839;51.364;7.246;2023-04-16T13:06:02;14.10;99.90
68051;DHT22;54839;51.364;7.246;2023-04-16T13:08:28;13.90;99.90
68051;DHT22;54839;51.364;7.246;2023-04-16T13:10:54;13.70;99.90
68051;DHT22;54839;51.364;7.246;2023-04-16T13:13:19;14.50;99.90
68051;DHT22;54839;51.364;7.246;2023-04-16T13:15:45;15.70;99.90
68051;DHT22;54839;51.364;7.246;2023-04-16T13:18:10;16.50;99.90
68051;DHT22;54839;51.364;7.246;2023-04-16T13:20:36;17.20;99.90
68051;DHT22;54839;51.364;7.246;2023-04-16T13:23:02;17.60;99.90
68051;DHT22;54839;51.364;7.246;2023-04-16T13:25:30;17.70;99.90
68051;DHT22;54839;51.364;7.246;2023-04-16T13:27:56;17.20;99.90
68051;DHT22;54839;51.364;7.246;2023-04-16T13:30:21;16.60;99.90
68051;DHT22;54839;51.364;7.246;2023-04-16T13:32:47;16.00;99.90
68051;DHT22;54839;51.364;7.246;2023-04-16T13:35:12;15.40;99.90
68051;DHT22;54839;51.364;7.246;2023-04-16T13:37:38;15.00;99.90
68051;DHT22;54839;51.364;7.246;2023-04-16T13:40:04;14.80;99.90
68051;DHT22;54839;51.364;7.246;2023-04-16T13:42:30;14.50;99.90
68051;DHT22;54839;51.364;7.246;2023-04-16T13:44:56;14.40;99.90
68051;DHT22;54839;51.364;7.246;2023-04-16T13:47:22;14.20;99.90
68051;DHT22;54839;51.364;7.246;2023-04-16T13:49:48;14.30;99.90
68051;DHT22;54839;51.364;7.246;2023-04-16T13:52:14;14.50;99.90
68051;DHT22;54839;51.364;7.246;2023-04-16T13:54:39;15.40;99.90
68051;DHT22;54839;51.364;7.246;2023-04-16T13:57:05;15.90;99.90
68051;DHT22;54839;51.364;7.246;2023-04-16T13:59:31;15.90;99.90
68051;DHT22;54839;51.364;7.246;2023-04-16T14:01:57;15.60;99.90
68051;DHT22;54839;51.364;7.246;2023-04-16T14:04:22;15.40;99.90
68051;DHT22;54839;51.364;7.246;2023-04-16T14:06:48;15.30;99.90
68051;DHT22;54839;51.364;7.246;2023-04-16T14:09:14;15.30;99.90
68051;DHT22;54839;51.364;7.246;2023-04-16T14:11:40;15.40;99.90
68051;DHT22;54839;51.364;7.246;2023-04-16T14:14:06;15.00;99.90
68051;DHT22;54839;51.364;7.246;2023-04-16T14:16:32;14.70;99.90
68051;DHT22;54839;51.364;7.246;2023-04-16T14:18:57;14.60;99.90
68051;DHT22;54839;51.364;7.246;2023-04-16T14:21:23;14.50;99.90
68051;DHT22;54839;51.364;7.246;2023-04-16T14:23:48;14.20;99.90
68051;DHT22;54839;51.364;7.246;2023-04-16T14:26:14;14.10;99.90
68051;DHT22;54839;51.364;7.246;2023-04-16T14:28:40;14.10;99.90
68051;DHT22;54839;51.364;7.246;2023-04-16T14:31:05;14.00;99.90
68051;DHT22;54839;51.364;7.246;2023-04-16T14:33:31;13.90;99.90
68051;DHT22;54839;51.364;7.246;2023-04-16T14:35:57;13.90;99.90
68051;DHT22;54839;51.364;7.246;2023-04-16T14:38:22;13.80;99.90
68051;DHT22;54839;51.364;7.246;2023-04-16T14:40:48;13.90;99.90
68051;DHT22;54839;51.364;7.246;2023-04-16T14:43:14;13.90;99.90
68051;DHT22;54839;51.364;7.246;2023-04-16T14:45:39;14.00;99.90
68051;DHT22;54839;51.364;7.246;2023-04-16T14:48:05;14.20;99.90
68051;DHT22;54839;51.364;7.246;2023-04-16T14:50:33;14.20;99.90
68051;DHT22;54839;51.364;7.246;2023-04-16T14:53:02;14.10;99.90
68051;DHT22;54839;51.364;7.246;2023-04-16T14:55:28;13.90;99.90
68051;DHT22;54839;51.364;7.246;2023-04-16T14:57:53;13.90;99.90
68051;DHT22;54839;51.364;7.246;2023-04-16T15:00:19;14.10;99.90
68051;DHT22;54839;51.364;7.246;2023-04-16T15:02:45;14.20;99.90
68051;DHT22;54839;51.364;7.246;2023-04-16T15:05:12;14.30;99.90
68051;DHT22;54839;51.364;7.246;2023-04-16T15:07:38;14.50;99.90
68051;DHT22;54839;51.364;7.246;2023-04-16T15:10:03;14.60;99.90
68051;DHT22;54839;51.364;7.246;2023-04-16T15:12:29;14.90;99.90
68051;DHT22;54839;51.364;7.246;2023-04-16T15:14:55;15.00;99.90
68051;DHT22;54839;51.364;7.246;2023-04-16T15:17:20;14.90;99.90
68051;DHT22;54839;51.364;7.246;2023-04-16T15:19:46;15.00;99.90
68051;DHT22;54839;51.364;7.246;2023-04-16T15:22:12;15.20;99.90
68051;DHT22;54839;51.364;7.246;2023-04-16T15:24:39;15.10;99.90
68051;DHT22;54839;51.364;7.246;2023-04-16T15:27:04;14.90;99.90
68051;DHT22;54839;51.364;7.246;2023-04-16T15:29:31;15.10;99.90
68051;DHT22;54839;51.364;7.246;2023-04-16T15:31:56;14.90;99.90
68051;DHT22;54839;51.364;7.246;2023-04-16T15:34:22;15.00;99.90
68051;DHT22;54839;51.364;7.246;2023-04-16T15:36:47;15.30;99.90
68051;DHT22;54839;51.364;7.246;2023-04-16T15:39:13;15.50;99.90
68051;DHT22;54839;51.364;7.246;2023-04-16T15:41:39;15.40;99.90
68051;DHT22;54839;51.364;7.246;2023-04-16T15:44:05;15.10;99.90
68051;DHT22;54839;51.364;7.246;2023-04-16T15:46:30;15.00;99.90
68051;DHT22;54839;51.364;7.246;2023-04-16T15:48:56;15.20;99.90
68051;DHT22;54839;51.364;7.246;2023-04-16T15:51:21;15.10;99.90